Time;durP1;ratioP1;P1;durP2;ratioP2;P2;SDS_P1;SDS_P2;PMS_P1;PMS_P2;Temp;Humidity;BMP_temperature;BMP_pressure;BME280_temperature;BME280_humidity;BME280_pressure;Samples;Min_cycle;Max_cycle;Signal;HPM_P1;HPM_P2
2023/01/01 00:01:05;;;;;;;232.65;159.98;;;5.60;99.90;;;;;;5055362;28;20691;-72
2023/01/01 00:03:33;;;;;;;396.83;269.52;;;5.60;99.90;;;;;;5055428;28;20228;-73
2023/01/01 00:06:05;;;;;;;499.17;379.08;;;5.60;99.90;;;;;;5055596;28;20205;-73
2023/01/01 00:08:32;;;;;;;581.03;472.17;;;5.60;99.90;;;;;;5055747;28;20184;-74
2023/01/01 00:11:00;;;;;;;514.00;395.45;;;5.70;99.90;;;;;;5055661;28;20200;-74
2023/01/01 00:13:27;;;;;;;435.73;294.42;;;5.70;99.90;;;;;;5055194;28;20737;-74
2023/01/01 00:15:53;;;;;;;541.15;411.98;;;5.70;99.90;;;;;;5055757;28;20208;-73
2023/01/01 00:18:20;;;;;;;450.05;313.45;;;5.80;99.90;;;;;;5055860;28;20201;-74
2023/01/01 00:20:48;;;;;;;306.15;206.50;;;5.80;99.90;;;;;;5055495;28;20196;-74
2023/01/01 00:23:15;;;;;;;473.80;342.05;;;5.80;99.90;;;;;;5055270;28;20216;-73
2023/01/01 00:25:42;;;;;;;518.70;400.35;;;5.80;99.90;;;;;;5055239;28;20203;-73
2023/01/01 00:28:09;;;;;;;496.55;375.08;;;5.80;99.90;;;;;;5055369;28;20303;-73
2023/01/01 00:30:40;;;;;;;405.73;275.33;;;5.80;99.90;;;;;;5055120;28;20208;-72
2023/01/01 00:33:07;;;;;;;432.63;301.08;;;5.80;99.90;;;;;;5055048;28;20256;-73
2023/01/01 00:35:33;;;;;;;593.83;479.05;;;5.80;99.90;;;;;;5054971;28;20200;-73
2023/01/01 00:38:02;;;;;;;746.35;622.42;;;5.80;99.90;;;;;;5055254;28;20208;-74
2023/01/01 00:40:28;;;;;;;654.10;541.03;;;5.70;99.90;;;;;;5055093;28;20271;-75
2023/01/01 00:42:55;;;;;;;835.80;688.05;;;5.70;99.90;;;;;;5054831;28;20235;-75
2023/01/01 00:45:22;;;;;;;864.35;714.53;;;5.70;99.90;;;;;;5054578;28;20560;-75
2023/01/01 00:47:49;;;;;;;868.22;712.13;;;5.60;99.90;;;;;;5054820;28;20208;-74
2023/01/01 00:50:16;;;;;;;642.22;532.80;;;5.60;99.90;;;;;;5054688;28;20216;-74
2023/01/01 00:52:43;;;;;;;568.50;464.45;;;5.60;99.90;;;;;;5054655;28;20217;-74
2023/01/01 00:55:11;;;;;;;706.55;589.35;;;5.60;99.90;;;;;;5054652;28;20615;-74
2023/01/01 00:57:38;;;;;;;714.13;600.95;;;5.60;99.90;;;;;;5054455;28;20694;-73
2023/01/01 01:00:06;;;;;;;799.13;658.65;;;5.50;99.90;;;;;;5054726;28;20201;-73
2023/01/01 01:02:33;;;;;;;760.30;636.85;;;5.50;99.90;;;;;;5054634;28;20196;-74
2023/01/01 01:05:02;;;;;;;738.40;615.47;;;5.40;99.90;;;;;;5054238;28;20659;-75
2023/01/01 01:07:34;;;;;;;748.72;632.58;;;5.30;99.90;;;;;;5054527;28;20211;-74
2023/01/01 01:10:00;;;;;;;850.97;691.45;;;5.30;99.90;;;;;;5054482;28;20216;-74
2023/01/01 01:12:28;;;;;;;903.72;731.53;;;5.30;99.90;;;;;;5054304;28;20569;-74
2023/01/01 01:14:55;;;;;;;954.75;761.58;;;5.30;99.90;;;;;;5054218;28;20216;-74
2023/01/01 01:17:22;;;;;;;912.38;736.22;;;5.20;99.90;;;;;;5054300;28;20203;-75
2023/01/01 01:19:48;;;;;;;932.50;752.08;;;5.20;99.90;;;;;;5054265;28;20274;-75
2023/01/01 01:22:15;;;;;;;931.88;747.88;;;5.10;99.90;;;;;;5054223;28;20209;-74
2023/01/01 01:24:42;;;;;;;919.83;744.22;;;5.10;99.90;;;;;;5054111;28;20196;-74
2023/01/01 01:27:09;;;;;;;919.10;742.75;;;5.10;99.90;;;;;;5053797;28;20215;-74
2023/01/01 01:29:37;;;;;;;916.10;739.20;;;5.00;99.90;;;;;;5054108;28;20214;-74
2023/01/01 01:32:04;;;;;;;908.05;742.58;;;5.00;99.90;;;;;;5053828;28;20690;-74
2023/01/01 01:34:30;;;;;;;912.15;733.15;;;5.00;99.90;;;;;;5053539;28;20679;-74
2023/01/01 01:36:57;;;;;;;891.00;730.22;;;5.00;99.90;;;;;;5054016;28;20223;-75
2023/01/01 01:39:24;;;;;;;900.00;729.08;;;5.00;99.90;;;;;;5053478;28;20205;-75
2023/01/01 01:41:51;;;;;;;862.40;703.05;;;4.90;99.90;;;;;;5053842;28;20206;-75
2023/01/01 01:44:52;;;;;;;840.15;697.33;;;4.90;99.90;;;;;;5053368;28;20228;-75
2023/01/01 01:47:23;;;;;;;824.78;672.28;;;4.90;99.90;;;;;;5053774;28;20211;-74
2023/01/01 01:49:56;;;;;;;787.70;637.97;;;4.90;99.90;;;;;;5053834;28;20185;-74
2023/01/01 01:52:23;;;;;;;773.08;648.25;;;4.90;99.90;;;;;;5053605;28;20189;-74
2023/01/01 01:54:50;;;;;;;782.00;645.58;;;4.80;99.90;;;;;;5053848;28;20217;-74
2023/01/01 01:57:17;;;;;;;771.47;632.38;;;4.80;99.90;;;;;;5055218;28;20201;-74
2023/01/01 01:59:48;;;;;;;713.72;588.88;;;4.90;99.90;;;;;;5053989;28;20211;-74
2023/01/01 02:02:23;;;;;;;672.30;558.13;;;4.80;99.90;;;;;;5053418;28;20185;-74
2023/01/01 02:04:50;;;;;;;644.10;527.40;;;4.80;99.90;;;;;;5053680;28;20235;-75
2023/01/01 02:07:19;;;;;;;509.02;389.58;;;4.80;99.90;;;;;;5053743;28;20207;-75
2023/01/01 02:09:45;;;;;;;469.08;346.13;;;4.80;99.90;;;;;;5053711;28;20196;-74
2023/01/01 02:12:12;;;;;;;369.23;251.45;;;4.90;99.90;;;;;;5053627;28;20205;-74
2023/01/01 02:14:39;;;;;;;285.27;198.18;;;4.90;99.90;;;;;;5053437;28;20224;-74
2023/01/01 02:17:13;;;;;;;248.95;162.20;;;4.90;99.90;;;;;;5053526;28;20212;-74
2023/01/01 02:19:55;;;;;;;224.10;144.30;;;4.90;99.90;;;;;;5053633;28;20200;-75
2023/01/01 02:22:29;;;;;;;250.77;168.57;;;4.90;99.90;;;;;;5053489;28;20184;-74
2023/01/01 02:25:09;;;;;;;237.57;152.82;;;4.90;99.90;;;;;;5053407;28;20188;-75
2023/01/01 07:13:26;;;;;;;92.28;69.28;;;2.70;99.90;;;;;;5307523;22;20228;-72
2023/01/01 07:15:54;;;;;;;83.38;64.38;;;2.80;99.90;;;;;;5036426;28;20233;-72
2023/01/01 07:18:21;;;;;;;86.18;67.30;;;2.80;99.90;;;;;;5036501;28;20204;-72
2023/01/01 07:20:50;;;;;;;82.75;61.97;;;2.80;99.90;;;;;;5036709;28;20201;-72
2023/01/01 07:23:16;;;;;;;62.60;47.70;;;2.80;99.90;;;;;;5036790;28;20221;-72
2023/01/01 07:25:43;;;;;;;67.65;53.03;;;2.80;99.90;;;;;;5037105;28;20678;-72
2023/01/01 07:28:11;;;;;;;74.60;55.60;;;2.90;99.90;;;;;;5036554;28;20213;-72
2023/01/01 07:30:39;;;;;;;80.60;61.28;;;3.00;99.90;;;;;;5036426;28;20235;-72
2023/01/01 07:33:06;;;;;;;78.25;59.67;;;3.00;99.90;;;;;;5036425;28;20221;-71
2023/01/01 07:35:33;;;;;;;75.15;58.42;;;3.00;99.90;;;;;;5036309;28;20252;-71
2023/01/01 07:37:59;;;;;;;72.28;55.97;;;3.00;99.90;;;;;;5035274;28;20564;-71
2023/01/01 07:40:26;;;;;;;75.43;56.15;;;3.00;99.90;;;;;;5036364;28;20210;-71
2023/01/01 07:42:53;;;;;;;67.93;52.80;;;3.00;99.90;;;;;;5036431;28;20225;-72
2023/01/01 07:45:19;;;;;;;73.80;54.13;;;3.10;99.90;;;;;;5035881;28;20691;-71
2023/01/01 07:47:51;;;;;;;66.30;50.45;;;3.10;99.90;;;;;;5037415;28;20216;-71
2023/01/01 07:50:18;;;;;;;75.18;56.72;;;3.20;99.90;;;;;;5038555;28;20197;-73
2023/01/01 07:52:45;;;;;;;71.47;54.45;;;3.30;99.90;;;;;;5035981;28;20224;-72
2023/01/01 07:55:13;;;;;;;75.10;57.17;;;3.40;99.90;;;;;;5035961;28;20249;-72
2023/01/01 07:57:40;;;;;;;78.35;58.80;;;3.40;99.90;;;;;;5036010;28;20625;-71
2023/01/01 08:00:09;;;;;;;73.57;56.80;;;3.50;99.90;;;;;;5035972;28;20228;-71
2023/01/01 08:02:35;;;;;;;61.25;46.47;;;3.60;99.90;;;;;;5035800;28;20229;-72
2023/01/01 08:05:04;;;;;;;74.53;55.90;;;3.70;99.90;;;;;;5035877;28;20324;-72
2023/01/01 08:07:31;;;;;;;70.63;53.45;;;3.90;99.90;;;;;;5035854;28;20209;-72
2023/01/01 08:09:58;;;;;;;66.32;51.95;;;3.80;99.90;;;;;;5035742;28;20209;-72
2023/01/01 08:12:25;;;;;;;58.65;45.70;;;3.90;99.90;;;;;;5035669;28;20222;-72
2023/01/01 08:14:52;;;;;;;57.85;43.95;;;4.00;99.90;;;;;;5035368;28;20232;-72
2023/01/01 08:17:18;;;;;;;55.30;43.20;;;4.20;99.90;;;;;;5035629;28;20208;-71
2023/01/01 08:19:45;;;;;;;53.35;43.00;;;4.30;99.90;;;;;;5035587;28;20198;-71
2023/01/01 08:22:13;;;;;;;62.53;49.83;;;4.60;99.90;;;;;;5035436;28;20323;-71
2023/01/01 08:24:40;;;;;;;72.97;56.80;;;4.70;99.90;;;;;;5035444;28;20198;-71
2023/01/01 08:27:07;;;;;;;71.78;56.45;;;4.80;99.90;;;;;;5035418;28;20201;-71
2023/01/01 08:29:34;;;;;;;68.05;54.35;;;4.80;99.90;;;;;;5035328;28;20197;-71
2023/01/01 08:32:00;;;;;;;65.82;51.03;;;4.80;99.90;;;;;;5035629;28;20244;-72
2023/01/01 08:34:27;;;;;;;57.20;45.03;;;4.80;99.90;;;;;;5035858;28;20232;-71
2023/01/01 08:36:54;;;;;;;53.83;42.30;;;4.80;99.90;;;;;;5036059;28;20212;-71
2023/01/01 08:39:22;;;;;;;55.28;41.88;;;5.00;99.90;;;;;;5036591;28;20212;-71
2023/01/01 08:41:49;;;;;;;54.55;42.67;;;5.20;99.90;;;;;;5035507;28;20198;-72
2023/01/01 08:44:15;;;;;;;37.20;31.33;;;5.40;99.90;;;;;;5035308;28;20564;-72
2023/01/01 08:46:42;;;;;;;38.22;31.70;;;5.60;99.90;;;;;;5035512;28;20205;-72
2023/01/01 08:49:09;;;;;;;36.38;31.50;;;5.60;99.90;;;;;;5033855;28;20676;-73
2023/01/01 08:51:35;;;;;;;30.80;27.33;;;5.60;99.90;;;;;;5034774;28;20312;-73
2023/01/01 08:54:03;;;;;;;63.35;48.33;;;5.60;99.90;;;;;;5034826;28;20236;-73
2023/01/01 08:56:31;;;;;;;71.97;52.88;;;5.50;99.90;;;;;;5034603;28;20692;-72
2023/01/01 08:58:57;;;;;;;59.03;46.28;;;5.40;99.90;;;;;;5036992;28;20201;-72
2023/01/01 09:01:26;;;;;;;56.97;45.20;;;5.40;99.90;;;;;;5038217;28;20197;-72
2023/01/01 09:03:53;;;;;;;60.28;46.28;;;5.40;99.90;;;;;;5037589;28;20217;-72
2023/01/01 09:06:20;;;;;;;58.65;47.05;;;5.40;99.90;;;;;;5038105;28;20197;-72
2023/01/01 09:08:46;;;;;;;54.50;41.63;;;5.50;99.90;;;;;;5037706;28;20205;-72
2023/01/01 09:11:22;;;;;;;55.40;43.78;;;5.50;99.90;;;;;;5039968;28;20205;-72
2023/01/01 09:13:51;;;;;;;56.53;43.55;;;5.60;99.90;;;;;;5038141;28;20221;-72
2023/01/01 09:16:18;;;;;;;58.65;46.85;;;5.60;99.90;;;;;;5037452;28;20218;-72
2023/01/01 09:18:44;;;;;;;61.97;48.65;;;5.60;99.90;;;;;;5037860;28;20205;-72
2023/01/01 09:21:13;;;;;;;63.45;49.72;;;5.70;99.90;;;;;;5037106;28;20214;-72
2023/01/01 09:23:39;;;;;;;60.03;47.42;;;5.70;99.90;;;;;;5037543;28;20221;-72
2023/01/01 09:26:08;;;;;;;61.30;48.35;;;5.80;99.90;;;;;;5037731;28;20610;-72
2023/01/01 09:28:35;;;;;;;67.38;51.88;;;5.90;99.90;;;;;;5038832;28;20201;-72
2023/01/01 09:31:05;;;;;;;61.00;49.05;;;6.00;99.90;;;;;;5038570;28;20201;-72
2023/01/01 09:33:31;;;;;;;61.15;47.85;;;6.20;99.90;;;;;;5038568;28;20311;-73
2023/01/01 09:36:12;;;;;;;55.95;45.97;;;6.50;99.90;;;;;;5038306;28;20228;-72
2023/01/01 09:38:39;;;;;;;51.45;42.47;;;6.70;99.90;;;;;;5036458;28;20186;-71
2023/01/01 09:41:16;;;;;;;57.28;47.00;;;7.00;99.90;;;;;;5036099;28;20209;-72
2023/01/01 09:43:53;;;;;;;58.22;47.85;;;7.10;99.90;;;;;;5038284;28;20217;-73
2023/01/01 09:46:24;;;;;;;54.35;44.35;;;7.20;99.90;;;;;;5037684;28;20181;-73
2023/01/01 09:48:55;;;;;;;54.50;43.42;;;7.40;99.90;;;;;;5037880;28;20193;-73
2023/01/01 09:51:23;;;;;;;43.78;36.78;;;7.50;99.90;;;;;;5037968;28;20190;-73
2023/01/01 09:53:55;;;;;;;42.75;35.63;;;7.70;99.90;;;;;;5036802;28;20225;-73
2023/01/01 09:56:25;;;;;;;57.28;41.28;;;7.80;99.90;;;;;;5037546;28;20206;-73
2023/01/01 09:58:54;;;;;;;47.67;37.70;;;7.90;99.90;;;;;;5037579;28;20196;-73
2023/01/01 10:01:33;;;;;;;38.45;31.92;;;8.00;99.90;;;;;;5036919;28;20202;-74
2023/01/01 10:04:07;;;;;;;51.72;37.90;;;8.20;99.90;;;;;;5036900;28;20189;-73
2023/01/01 10:06:39;;;;;;;44.05;35.40;;;8.20;99.90;;;;;;5037668;28;20192;-73
2023/01/01 10:09:14;;;;;;;42.33;33.15;;;8.40;99.90;;;;;;5036230;28;20193;-73
2023/01/01 10:11:52;;;;;;;40.20;32.90;;;8.40;99.90;;;;;;5034165;28;20204;-73
2023/01/01 10:14:25;;;;;;;68.70;46.55;;;8.50;99.90;;;;;;5033987;28;20192;-73
2023/01/01 10:16:56;;;;;;;52.42;38.60;;;8.50;99.90;;;;;;5033769;28;20208;-72
2023/01/01 10:19:33;;;;;;;50.03;37.38;;;8.50;99.90;;;;;;5034074;28;20186;-72
2023/01/01 10:22:05;;;;;;;44.72;35.85;;;8.60;99.90;;;;;;5033690;28;20220;-73
2023/01/01 10:24:39;;;;;;;37.33;30.08;;;8.60;99.90;;;;;;5033820;28;20181;-73
2023/01/01 10:27:06;;;;;;;36.08;29.40;;;8.70;99.90;;;;;;5033979;28;20186;-73
2023/01/01 10:29:40;;;;;;;35.25;28.05;;;8.80;99.90;;;;;;5033548;28;20205;-72
2023/01/01 10:32:19;;;;;;;35.08;31.00;;;8.90;99.90;;;;;;5033777;28;20225;-71
2023/01/01 10:34:46;;;;;;;36.63;29.10;;;9.10;99.90;;;;;;5033783;28;20189;-74
2023/01/01 10:37:14;;;;;;;37.00;31.38;;;9.30;99.90;;;;;;5033773;28;20201;-73
2023/01/01 10:39:42;;;;;;;45.63;32.95;;;9.40;99.90;;;;;;5033760;28;20225;-74
2023/01/01 10:42:12;;;;;;;29.58;21.98;;;9.60;99.90;;;;;;5033776;28;20225;-76
2023/01/01 10:44:39;;;;;;;10.77;9.57;;;9.70;99.90;;;;;;5034486;28;20605;-74
2023/01/01 10:47:22;;;;;;;11.32;10.13;;;9.90;99.90;;;;;;5033977;28;20213;-75
2023/01/01 10:49:55;;;;;;;5.45;4.95;;;10.10;99.90;;;;;;5037635;28;20192;-75
2023/01/01 10:52:29;;;;;;;4.60;4.20;;;10.30;99.90;;;;;;5033906;28;20221;-75
2023/01/01 10:54:55;;;;;;;5.25;3.85;;;10.40;99.90;;;;;;5035180;28;20185;-76
2023/01/01 10:57:32;;;;;;;4.93;3.95;;;10.50;99.90;;;;;;5035397;28;20181;-76
2023/01/01 11:00:21;;;;;;;5.75;4.25;;;10.60;99.90;;;;;;5033074;28;20607;-75
2023/01/01 11:03:11;;;;;;;4.43;4.03;;;10.60;99.90;;;;;;5034049;28;20233;-77
2023/01/01 11:05:38;;;;;;;3.83;3.53;;;10.70;99.90;;;;;;5033342;28;20252;-76
2023/01/01 11:08:17;;;;;;;5.35;3.10;;;10.80;99.90;;;;;;5033202;28;20213;-76
2023/01/01 11:10:50;;;;;;;5.78;3.30;;;10.80;99.90;;;;;;5035303;28;20263;-76
2023/01/01 11:13:19;;;;;;;3.95;3.20;;;10.80;99.90;;;;;;5036281;28;20263;-76
2023/01/01 11:15:46;;;;;;;3.40;3.10;;;10.80;99.90;;;;;;5038095;28;20221;-79
2023/01/01 11:18:17;;;;;;;4.80;3.08;;;10.90;99.90;;;;;;5038132;28;20610;-78
2023/01/01 11:20:50;;;;;;;6.45;3.30;;;10.90;99.90;;;;;;5039676;28;20190;-77
2023/01/01 11:23:20;;;;;;;3.17;2.97;;;10.90;99.90;;;;;;5038496;28;20228;-76
2023/01/01 17:17:23;;;;;;;3.83;3.33;;;6.50;99.90;;;;;;5283247;22;20319;-73
2023/01/01 17:19:50;;;;;;;8.13;3.53;;;6.50;99.90;;;;;;5054062;28;20216;-74
2023/01/01 17:22:17;;;;;;;3.50;3.20;;;6.40;99.90;;;;;;5054443;28;20212;-75
2023/01/01 17:24:44;;;;;;;3.05;2.85;;;6.40;99.90;;;;;;5054605;28;20606;-74
2023/01/01 17:27:10;;;;;;;6.53;3.22;;;6.30;99.90;;;;;;5054643;28;20216;-74
2023/01/01 17:29:37;;;;;;;6.05;4.22;;;6.30;99.90;;;;;;5054314;28;20196;-74
2023/01/01 17:32:04;;;;;;;3.00;2.80;;;6.20;99.90;;;;;;5054265;28;20287;-74
2023/01/01 17:34:32;;;;;;;5.85;2.97;;;6.20;99.90;;;;;;5054309;28;20563;-74
2023/01/01 17:36:59;;;;;;;3.10;2.80;;;6.20;99.90;;;;;;5054325;28;20258;-72
2023/01/01 17:39:26;;;;;;;2.10;1.90;;;6.20;99.90;;;;;;5054393;28;20201;-74
2023/01/01 17:41:53;;;;;;;3.97;2.25;;;6.20;99.90;;;;;;5054108;28;20205;-72
2023/01/01 17:44:19;;;;;;;7.22;4.95;;;6.10;99.90;;;;;;5053896;28;20285;-72
2023/01/01 17:46:46;;;;;;;9.23;6.90;;;6.10;99.90;;;;;;5053929;28;20227;-71
2023/01/01 17:49:13;;;;;;;14.65;7.55;;;6.10;99.90;;;;;;5053843;28;20197;-72
2023/01/01 17:51:41;;;;;;;5.40;4.53;;;6.00;99.90;;;;;;5053823;28;20223;-71
2023/01/01 17:54:12;;;;;;;4.15;3.85;;;6.00;99.90;;;;;;5053810;28;20243;-72
2023/01/01 17:56:39;;;;;;;7.30;5.03;;;6.00;99.90;;;;;;5053404;28;20634;-72
2023/01/01 17:59:06;;;;;;;5.18;3.80;;;6.00;99.90;;;;;;5053831;28;20201;-71
2023/01/01 18:01:34;;;;;;;12.95;7.13;;;6.10;99.90;;;;;;5053803;28;20200;-71
2023/01/01 18:04:02;;;;;;;11.82;6.00;;;6.10;99.90;;;;;;5053995;28;20205;-72
2023/01/01 18:06:30;;;;;;;6.95;5.85;;;6.10;99.90;;;;;;5053670;28;20308;-71
2023/01/01 18:08:59;;;;;;;6.30;5.20;;;6.00;99.90;;;;;;5055705;28;20544;-71
2023/01/01 18:11:28;;;;;;;8.23;5.40;;;6.00;99.90;;;;;;5055542;28;20690;-73
2023/01/01 18:13:55;;;;;;;7.07;5.35;;;5.90;99.90;;;;;;5056918;28;20205;-73
2023/01/01 18:16:23;;;;;;;7.38;4.75;;;5.90;99.90;;;;;;5058072;28;20246;-73
2023/01/01 18:18:50;;;;;;;4.78;4.22;;;5.80;99.90;;;;;;5058491;28;20587;-75
2023/01/01 18:21:20;;;;;;;6.63;4.65;;;5.80;99.90;;;;;;5058287;28;20205;-75
2023/01/01 18:23:49;;;;;;;7.18;4.00;;;5.80;99.90;;;;;;5058859;28;20196;-74
2023/01/01 18:26:18;;;;;;;5.57;3.97;;;5.80;99.90;;;;;;5058511;28;20251;-74
2023/01/01 18:28:45;;;;;;;5.07;3.92;;;5.70;99.90;;;;;;5058775;28;20558;-74
2023/01/01 18:31:14;;;;;;;5.03;3.88;;;5.70;99.90;;;;;;5057737;28;20197;-75
2023/01/01 18:33:41;;;;;;;6.07;4.80;;;5.70;99.90;;;;;;5058750;28;20201;-75
2023/01/01 18:36:11;;;;;;;4.90;3.72;;;5.70;99.90;;;;;;5058165;28;20657;-75
2023/01/01 18:38:39;;;;;;;4.22;3.92;;;5.70;99.90;;;;;;5058283;28;20210;-75
2023/01/01 18:41:27;;;;;;;5.20;4.43;;;5.70;99.90;;;;;;5058533;28;20234;-75
2023/01/01 18:43:55;;;;;;;5.97;4.30;;;5.70;99.90;;;;;;5058276;28;20197;-74
2023/01/01 18:46:22;;;;;;;11.70;6.95;;;5.70;99.90;;;;;;5057980;28;20223;-74
2023/01/01 18:48:49;;;;;;;11.98;7.18;;;5.70;99.90;;;;;;5056552;28;20283;-73
2023/01/01 18:51:21;;;;;;;13.55;9.98;;;5.60;99.90;;;;;;5055127;28;20231;-73
2023/01/01 18:53:48;;;;;;;15.32;11.65;;;5.60;99.90;;;;;;5055512;28;20524;-74
2023/01/01 18:56:15;;;;;;;23.50;12.73;;;5.50;99.90;;;;;;5053067;28;20687;-74
2023/01/01 18:58:44;;;;;;;25.98;16.50;;;5.50;99.90;;;;;;5053763;28;20207;-74
2023/01/01 19:01:14;;;;;;;32.38;19.42;;;5.50;99.90;;;;;;5053736;28;20291;-74
2023/01/01 19:03:41;;;;;;;38.95;24.55;;;5.50;99.90;;;;;;5053552;28;20185;-73
2023/01/01 19:06:24;;;;;;;31.63;20.90;;;5.50;99.90;;;;;;5053096;28;20587;-74
2023/01/01 19:08:56;;;;;;;21.35;14.52;;;5.50;99.90;;;;;;5053245;28;20635;-74
2023/01/01 19:11:23;;;;;;;17.27;12.18;;;5.50;99.90;;;;;;5053059;28;20551;-73
2023/01/01 19:13:57;;;;;;;16.80;12.02;;;5.50;99.90;;;;;;5053323;28;20197;-73
2023/01/01 19:16:27;;;;;;;18.38;10.93;;;5.50;99.90;;;;;;5053076;28;20679;-75
2023/01/01 19:18:57;;;;;;;19.08;12.13;;;5.40;99.90;;;;;;5053365;28;20283;-74
2023/01/01 19:21:24;;;;;;;16.35;11.32;;;5.40;99.90;;;;;;5053365;28;20204;-75
2023/01/01 19:23:52;;;;;;;18.15;10.63;;;5.40;99.90;;;;;;5053387;28;20195;-75
2023/01/01 19:26:23;;;;;;;9.90;8.13;;;5.50;99.90;;;;;;5053086;28;20699;-74
2023/01/01 19:28:54;;;;;;;10.40;6.82;;;5.40;99.90;;;;;;5052979;28;20590;-74
2023/01/01 19:31:21;;;;;;;8.23;4.90;;;5.40;99.90;;;;;;5052808;28;20528;-74
2023/01/01 19:33:47;;;;;;;6.03;4.93;;;5.40;99.90;;;;;;5053745;28;20197;-74
2023/01/01 19:36:14;;;;;;;7.32;3.75;;;5.40;99.90;;;;;;5056849;28;20231;-77
2023/01/01 19:38:42;;;;;;;5.15;3.60;;;5.40;99.90;;;;;;5057954;28;20208;-75
2023/01/01 19:41:09;;;;;;;5.03;4.20;;;5.30;99.90;;;;;;5057003;28;20223;-73
2023/01/01 19:43:36;;;;;;;4.47;4.00;;;5.40;99.90;;;;;;5056573;28;20223;-74
2023/01/01 19:46:05;;;;;;;6.82;4.00;;;5.30;99.90;;;;;;5056369;28;20220;-75
2023/01/01 19:48:31;;;;;;;7.20;4.47;;;5.30;99.90;;;;;;5057215;28;20285;-75
2023/01/01 19:50:58;;;;;;;6.72;4.93;;;5.30;99.90;;;;;;5056370;28;20247;-74
2023/01/01 19:53:25;;;;;;;5.18;4.40;;;5.30;99.90;;;;;;5056244;28;20608;-75
2023/01/01 19:55:52;;;;;;;7.88;4.43;;;5.30;99.90;;;;;;5056039;28;20225;-75
2023/01/01 19:58:19;;;;;;;5.45;4.55;;;5.30;99.90;;;;;;5056140;28;20228;-76
2023/01/01 20:00:46;;;;;;;7.00;4.60;;;5.30;99.90;;;;;;5056172;28;20201;-76
2023/01/01 20:03:14;;;;;;;10.50;5.40;;;5.20;99.90;;;;;;5056220;28;20200;-76
2023/01/01 20:05:41;;;;;;;4.63;3.80;;;5.20;99.90;;;;;;5055763;28;20215;-74
2023/01/01 20:08:07;;;;;;;4.10;3.70;;;5.20;99.90;;;;;;5055877;28;20246;-74
2023/01/01 20:10:34;;;;;;;4.30;3.78;;;5.20;99.90;;;;;;5056029;28;20204;-74
2023/01/01 20:13:01;;;;;;;4.15;3.88;;;5.10;99.90;;;;;;5055807;28;20205;-75
2023/01/01 20:15:27;;;;;;;4.70;3.88;;;5.10;99.90;;;;;;5056671;28;20201;-75
2023/01/01 20:17:54;;;;;;;4.13;3.63;;;5.10;99.90;;;;;;5056022;28;20217;-73
2023/01/01 20:20:22;;;;;;;7.50;4.30;;;5.10;99.90;;;;;;5055497;28;20215;-74
2023/01/01 20:22:49;;;;;;;4.45;4.05;;;5.00;99.90;;;;;;5055670;28;20196;-75
2023/01/01 20:25:16;;;;;;;3.90;3.60;;;5.00;99.90;;;;;;5055635;28;20204;-74
2023/01/01 20:30:23;;;;;;;8.63;5.10;;;5.00;99.90;;;;;;5054894;28;20648;-73
2023/01/01 20:32:50;;;;;;;5.85;5.03;;;5.00;99.90;;;;;;5055310;28;20566;-73
2023/01/01 20:37:35;;;;;;;6.25;4.30;;;4.90;99.90;;;;;;5055521;28;20196;-74
2023/01/01 20:38:04;;;;;;;10.25;5.80;;;4.90;99.90;;;;;;5054902;28;20572;-74
2023/01/01 20:40:31;;;;;;;13.00;6.72;;;4.90;99.90;;;;;;5056023;28;20193;-74
2023/01/01 20:42:57;;;;;;;8.00;6.55;;;4.90;99.90;;;;;;5054897;28;20594;-73
2023/01/01 20:45:24;;;;;;;11.50;6.22;;;4.90;99.90;;;;;;5055263;28;20205;-74
2023/01/01 20:47:51;;;;;;;9.80;6.47;;;4.80;99.90;;;;;;5054990;28;20217;-74
2023/01/01 20:50:17;;;;;;;5.57;5.07;;;4.80;99.90;;;;;;5054951;28;20200;-75
2023/01/01 20:52:44;;;;;;;6.07;4.93;;;4.70;99.90;;;;;;5055614;28;20201;-74
2023/01/01 20:55:12;;;;;;;11.10;5.78;;;4.70;99.90;;;;;;5055029;28;20579;-74
2023/01/01 20:57:39;;;;;;;9.77;6.85;;;4.70;99.90;;;;;;5054706;28;20224;-74
2023/01/01 21:00:07;;;;;;;10.90;6.88;;;4.70;99.90;;;;;;5054856;28;20250;-74
2023/01/01 21:02:35;;;;;;;6.00;5.10;;;4.70;99.90;;;;;;5054712;28;20562;-73
2023/01/01 21:05:03;;;;;;;7.78;5.38;;;4.70;99.90;;;;;;5054785;28;20262;-74
2023/01/01 21:07:30;;;;;;;6.88;4.95;;;4.70;99.90;;;;;;5054659;28;20217;-74
2023/01/01 21:09:56;;;;;;;8.70;5.28;;;4.60;99.90;;;;;;5054587;28;20227;-74
2023/01/01 21:12:24;;;;;;;7.28;5.15;;;4.70;99.90;;;;;;5054724;28;20208;-74
2023/01/01 21:14:54;;;;;;;7.35;5.20;;;4.70;99.90;;;;;;5054478;28;20675;-75
2023/01/01 21:17:22;;;;;;;11.13;5.82;;;4.70;99.90;;;;;;5054738;28;20224;-74
2023/01/01 21:19:50;;;;;;;9.77;5.68;;;4.60;99.90;;;;;;5054320;28;20694;-72
2023/01/01 21:22:16;;;;;;;9.43;5.90;;;4.60;99.90;;;;;;5054314;28;20200;-72
2023/01/01 21:24:43;;;;;;;14.75;9.20;;;4.60;99.90;;;;;;5054519;28;20687;-74
2023/01/01 21:27:13;;;;;;;24.25;14.05;;;4.60;99.90;;;;;;5054148;28;20278;-74
2023/01/01 21:29:45;;;;;;;26.65;15.02;;;4.60;99.90;;;;;;5054088;28;20535;-74
2023/01/01 21:32:18;;;;;;;18.98;13.15;;;4.60;99.90;;;;;;5053848;28;20559;-74
2023/01/01 21:34:47;;;;;;;14.88;10.73;;;4.60;99.90;;;;;;5053879;28;20552;-74
2023/01/01 21:40:37;;;;;;;9.15;6.93;;;4.60;99.90;;;;;;5053551;28;20203;-73
2023/01/01 21:43:25;;;;;;;6.13;5.45;;;4.60;99.90;;;;;;5053730;28;20200;-73
2023/01/01 21:45:54;;;;;;;6.28;4.40;;;4.50;99.90;;;;;;5053986;28;20231;-73
2023/01/01 21:48:27;;;;;;;5.22;4.05;;;4.50;99.90;;;;;;5053974;28;20200;-73
2023/01/01 21:50:54;;;;;;;7.25;4.63;;;4.50;99.90;;;;;;5054006;28;20185;-73
2023/01/01 21:53:22;;;;;;;8.15;4.43;;;4.50;99.90;;;;;;5053777;28;20204;-73
2023/01/01 21:55:51;;;;;;;4.25;3.80;;;4.60;99.90;;;;;;5053737;28;20277;-75
2023/01/01 22:01:19;;;;;;;4.28;3.88;;;4.60;99.90;;;;;;5053876;28;20674;-74
2023/01/01 22:03:45;;;;;;;4.20;3.80;;;4.60;99.90;;;;;;5053963;28;20208;-72
2023/01/01 22:06:15;;;;;;;5.70;4.00;;;4.60;99.90;;;;;;5053896;28;20235;-73
2023/01/01 22:08:43;;;;;;;4.05;3.63;;;4.50;99.90;;;;;;5053527;28;20667;-73
2023/01/01 22:11:20;;;;;;;5.10;3.42;;;4.60;99.90;;;;;;5053697;28;20204;-73
2023/01/01 22:13:47;;;;;;;8.40;4.22;;;4.60;99.90;;;;;;5053822;28;20187;-73
2023/01/01 22:16:15;;;;;;;4.22;3.80;;;4.60;99.90;;;;;;5053410;28;20299;-73
2023/01/01 22:18:42;;;;;;;3.85;3.47;;;4.60;99.90;;;;;;5053372;28;20231;-73
2023/01/01 22:21:15;;;;;;;5.53;3.83;;;4.50;99.90;;;;;;5053544;28;20614;-75
2023/01/01 22:23:43;;;;;;;3.60;3.22;;;4.50;99.90;;;;;;5054304;28;20196;-74
2023/01/01 22:26:17;;;;;;;6.43;5.65;;;4.50;99.90;;;;;;5054547;28;20216;-72
2023/01/01 22:28:46;;;;;;;8.70;6.95;;;4.50;99.90;;;;;;5054386;28;20628;-72
2023/01/01 22:31:20;;;;;;;7.18;5.68;;;4.50;99.90;;;;;;5055355;28;20222;-73
2023/01/01 22:33:48;;;;;;;11.02;5.68;;;4.50;99.90;;;;;;5053900;28;20181;-72
2023/01/01 22:36:20;;;;;;;5.90;4.22;;;4.50;99.90;;;;;;5053286;28;20707;-73
2023/01/01 22:38:47;;;;;;;6.63;4.88;;;4.50;99.90;;;;;;5053084;28;20602;-73
2023/01/01 22:41:14;;;;;;;6.57;5.82;;;4.40;99.90;;;;;;5053728;28;20200;-73
2023/01/01 22:43:43;;;;;;;9.23;6.25;;;4.40;99.90;;;;;;5053740;28;20196;-73
2023/01/01 22:46:15;;;;;;;6.88;5.93;;;4.40;99.90;;;;;;5053485;28;20216;-72
2023/01/01 22:48:44;;;;;;;7.93;6.28;;;4.40;99.90;;;;;;5053343;28;20185;-72
2023/01/01 22:51:16;;;;;;;8.05;5.78;;;4.40;99.90;;;;;;5053382;28;20209;-72
2023/01/01 22:53:43;;;;;;;7.20;5.22;;;4.40;99.90;;;;;;5053496;28;20188;-72
2023/01/01 22:56:10;;;;;;;10.30;5.53;;;4.30;99.90;;;;;;5053453;28;20252;-72
2023/01/01 22:58:37;;;;;;;9.70;5.05;;;4.30;99.90;;;;;;5053462;28;20213;-72
2023/01/01 23:01:03;;;;;;;8.10;5.60;;;4.30;99.90;;;;;;5053907;28;20240;-72
2023/01/01 23:03:30;;;;;;;8.50;6.07;;;4.30;99.90;;;;;;5053770;28;20227;-72
2023/01/01 23:05:59;;;;;;;8.45;6.88;;;4.20;99.90;;;;;;5053115;28;20220;-72
2023/01/01 23:08:26;;;;;;;8.43;7.28;;;4.20;99.90;;;;;;5053057;28;20562;-73
2023/01/01 23:10:53;;;;;;;8.27;5.68;;;4.30;99.90;;;;;;5056991;28;20600;-73
2023/01/01 23:16:05;;;;;;;14.75;10.55;;;4.20;99.90;;;;;;5057085;28;20317;-73
2023/01/01 23:18:33;;;;;;;11.55;10.00;;;4.20;99.90;;;;;;5056585;28;20243;-72
2023/01/01 23:21:03;;;;;;;14.77;11.35;;;4.10;99.90;;;;;;5056447;28;20185;-72
2023/01/01 23:23:30;;;;;;;15.77;9.95;;;4.10;99.90;;;;;;5056681;28;20196;-72
2023/01/01 23:25:58;;;;;;;13.98;10.00;;;4.10;99.90;;;;;;5056587;28;20228;-72
2023/01/01 23:28:26;;;;;;;15.23;9.95;;;4.10;99.90;;;;;;5056671;28;20200;-72
2023/01/01 23:30:53;;;;;;;13.88;10.45;;;4.00;99.90;;;;;;5056594;28;20216;-72
2023/01/01 23:33:21;;;;;;;15.63;10.32;;;3.90;99.90;;;;;;5056472;28;20208;-72
2023/01/01 23:35:48;;;;;;;10.52;8.77;;;3.90;99.90;;;;;;5056675;28;20232;-71
2023/01/01 23:38:16;;;;;;;14.40;9.85;;;3.80;99.90;;;;;;5056411;28;20216;-71